createdAt,value
2018-10-07T00:01:25.490Z,15.63
2018-10-07T00:03:55.113Z,15.65
2018-10-07T00:06:24.932Z,15.60
2018-10-07T00:08:54.977Z,15.48
2018-10-07T00:11:24.579Z,15.41
2018-10-07T00:13:55.209Z,15.35
2018-10-07T00:16:25.285Z,15.39
2018-10-07T00:18:54.937Z,15.30
2018-10-07T00:21:24.591Z,15.09
2018-10-07T00:24:06.327Z,14.89
2018-10-07T00:26:36.151Z,14.70
2018-10-07T00:29:12.930Z,14.54
2018-10-07T00:31:47.666Z,14.39
2018-10-07T00:34:18.689Z,14.31
2018-10-07T00:36:48.701Z,14.25
2018-10-07T00:39:18.373Z,14.19
2018-10-07T00:41:48.035Z,14.13
2018-10-07T00:44:19.669Z,14.05
2018-10-07T00:46:49.420Z,13.97
2018-10-07T00:49:19.087Z,13.93
2018-10-07T00:51:48.830Z,13.89
2018-10-07T00:54:19.904Z,13.83
2018-10-07T00:56:50.477Z,13.79
2018-10-07T00:59:22.896Z,13.74
2018-10-07T01:01:52.691Z,13.67
2018-10-07T01:04:22.485Z,13.59
2018-10-07T01:06:52.118Z,13.54
2018-10-07T01:09:23.324Z,13.52
2018-10-07T01:11:53.588Z,13.52
2018-10-07T01:14:23.387Z,13.47
2018-10-07T01:16:53.522Z,13.41
2018-10-07T01:19:24.344Z,13.39
2018-10-07T01:21:54.370Z,13.42
2018-10-07T01:24:24.060Z,13.44
2018-10-07T01:26:54.069Z,13.42
2018-10-07T01:29:24.657Z,13.50
2018-10-07T01:31:54.355Z,13.50
2018-10-07T01:34:24.076Z,13.43
2018-10-07T01:36:55.818Z,13.37
2018-10-07T01:39:26.232Z,13.33
2018-10-07T01:41:56.370Z,13.31
2018-10-07T01:44:26.047Z,13.30
2018-10-07T01:46:55.917Z,13.35
2018-10-07T01:49:27.822Z,13.34
2018-10-07T01:51:58.320Z,13.32
2018-10-07T01:54:28.608Z,13.29
2018-10-07T01:56:58.297Z,13.25
2018-10-07T01:59:29.345Z,13.21
2018-10-07T02:02:00.241Z,13.19
2018-10-07T02:04:33.298Z,13.13
2018-10-07T02:07:15.354Z,13.10
2018-10-07T02:10:18.252Z,13.03
2018-10-07T02:12:48.438Z,13.04
2018-10-07T02:15:38.236Z,13.01
2018-10-07T02:18:07.883Z,13.00
2018-10-07T02:20:41.450Z,12.94
2018-10-07T02:23:17.876Z,12.91
2018-10-07T02:25:47.905Z,12.88
2018-10-07T02:28:34.474Z,12.86
2018-10-07T02:31:24.806Z,12.83
2018-10-07T02:33:58.932Z,12.77
2018-10-07T02:36:29.126Z,12.74
2018-10-07T02:38:58.867Z,12.73
2018-10-07T02:41:28.529Z,12.70
2018-10-07T02:43:58.592Z,12.70
2018-10-07T02:46:28.299Z,12.69
2018-10-07T02:48:57.938Z,12.68
2018-10-07T02:51:27.601Z,12.67
2018-10-07T02:53:57.946Z,12.68
2018-10-07T02:56:27.806Z,12.67
2018-10-07T02:58:58.668Z,12.66
2018-10-07T03:01:28.277Z,12.63
2018-10-07T03:03:57.922Z,12.60
2018-10-07T03:06:27.591Z,12.56
2018-10-07T03:08:57.728Z,12.55
2018-10-07T03:11:28.378Z,12.53
2018-10-07T03:14:07.131Z,12.42
2018-10-07T03:16:46.644Z,12.37
2018-10-07T03:19:28.699Z,12.33
2018-10-07T03:22:00.434Z,12.28
2018-10-07T03:24:40.583Z,12.21
2018-10-07T03:27:16.534Z,12.14
2018-10-07T03:30:01.249Z,12.09
2018-10-07T03:32:31.401Z,12.04
2018-10-07T03:35:01.387Z,11.97
2018-10-07T03:37:31.225Z,11.93
2018-10-07T03:40:00.902Z,11.88
2018-10-07T03:42:30.633Z,11.82
2018-10-07T03:45:00.269Z,11.80
2018-10-07T03:47:30.256Z,11.74
2018-10-07T03:49:59.958Z,11.73
2018-10-07T03:52:29.726Z,11.63
2018-10-07T03:54:59.413Z,11.62
2018-10-07T03:57:29.377Z,11.63
2018-10-07T03:59:59.069Z,11.63
2018-10-07T04:02:29.074Z,11.53
2018-10-07T04:04:58.719Z,11.49
2018-10-07T04:07:28.404Z,11.48
2018-10-07T04:09:58.129Z,11.50
2018-10-07T04:12:27.773Z,11.43
2018-10-07T04:14:57.457Z,11.39
2018-10-07T04:17:27.119Z,11.40
2018-10-07T04:19:57.261Z,11.32
2018-10-07T04:22:26.932Z,11.29
2018-10-07T04:24:56.685Z,11.30
2018-10-07T04:27:26.870Z,11.25
2018-10-07T04:29:56.512Z,11.25
2018-10-07T04:32:26.219Z,11.22
2018-10-07T04:34:55.901Z,11.15
2018-10-07T04:37:25.532Z,11.15
2018-10-07T04:39:55.343Z,11.10
2018-10-07T04:42:31.286Z,11.05
2018-10-07T04:45:01.644Z,11.01
2018-10-07T04:47:31.317Z,10.95
2018-10-07T04:50:00.980Z,10.89
2018-10-07T04:52:30.642Z,10.83
2018-10-07T04:55:01.354Z,10.85
2018-10-07T04:57:33.911Z,10.77
2018-10-07T05:00:03.727Z,10.77
2018-10-07T05:02:33.417Z,10.72
2018-10-07T05:05:03.402Z,10.69
2018-10-07T05:07:33.157Z,10.68
2018-10-07T05:10:15.381Z,10.74
2018-10-07T05:12:45.747Z,10.74
2018-10-07T05:15:15.464Z,10.71
2018-10-07T05:17:45.186Z,10.71
2018-10-07T05:20:15.796Z,10.68
2018-10-07T05:22:45.501Z,10.64
2018-10-07T05:25:15.210Z,10.64
2018-10-07T05:27:45.391Z,10.57
2018-10-07T05:30:15.342Z,10.60
2018-10-07T05:32:45.417Z,10.64
2018-10-07T05:35:15.407Z,10.67
2018-10-07T05:37:45.097Z,10.72
2018-10-07T05:40:15.285Z,10.71
2018-10-07T05:42:44.981Z,10.68
2018-10-07T05:45:14.753Z,10.72
2018-10-07T05:47:45.006Z,10.77
2018-10-07T05:50:14.691Z,10.81
2018-10-07T05:52:44.357Z,10.86
2018-10-07T05:55:14.090Z,10.83
2018-10-07T05:57:48.727Z,10.83
2018-10-07T06:00:20.577Z,10.89
2018-10-07T06:02:50.331Z,10.95
2018-10-07T06:05:20.322Z,11.01
2018-10-07T06:07:49.983Z,11.04
2018-10-07T06:10:20.056Z,11.13
2018-10-07T06:12:56.913Z,11.11
2018-10-07T06:15:35.363Z,11.20
2018-10-07T06:18:15.241Z,11.28
2018-10-07T06:20:46.647Z,11.36
2018-10-07T06:23:17.337Z,11.45
2018-10-07T06:25:48.111Z,11.49
2018-10-07T06:28:17.785Z,11.59
2018-10-07T06:30:48.105Z,11.65
2018-10-07T06:33:19.333Z,11.74
2018-10-07T06:35:49.014Z,11.82
2018-10-07T06:38:18.727Z,11.89
2018-10-07T06:40:48.435Z,11.98
2018-10-07T06:43:19.224Z,12.07
2018-10-07T06:45:50.724Z,12.16
2018-10-07T06:48:20.566Z,12.25
2018-10-07T06:50:50.385Z,12.38
2018-10-07T06:53:20.269Z,12.51
2018-10-07T06:55:50.121Z,12.63
2018-10-07T06:58:20.328Z,12.78
2018-10-07T07:00:50.050Z,12.90
2018-10-07T07:03:19.790Z,13.04
2018-10-07T07:05:49.522Z,13.19
2018-10-07T07:08:20.742Z,13.33
2018-10-07T07:10:51.409Z,13.44
2018-10-07T07:13:22.039Z,13.55
2018-10-07T07:15:51.921Z,13.67
2018-10-07T07:18:21.608Z,13.88
2018-10-07T07:20:51.413Z,14.15
2018-10-07T07:23:22.133Z,14.38
2018-10-07T07:25:52.725Z,14.57
2018-10-07T07:28:23.118Z,14.73
2018-10-07T07:30:55.288Z,14.85
2018-10-07T07:33:27.527Z,15.00
2018-10-07T07:35:57.238Z,15.13
2018-10-07T07:38:29.243Z,15.15
2018-10-07T07:40:59.741Z,15.14
2018-10-07T07:43:32.443Z,15.13
2018-10-07T07:46:03.689Z,15.17
2018-10-07T07:48:33.986Z,15.22
2018-10-07T07:51:07.326Z,15.29
2018-10-07T07:53:37.104Z,15.29
2018-10-07T07:56:23.267Z,15.36
2018-10-07T07:58:52.978Z,15.47
2018-10-07T08:01:35.484Z,15.57
2018-10-07T08:04:05.201Z,15.69
2018-10-07T08:06:35.275Z,15.65
2018-10-07T08:09:08.323Z,15.72
2018-10-07T08:11:38.412Z,15.82
2018-10-07T08:14:08.303Z,15.89
2018-10-07T08:16:38.249Z,15.89
2018-10-07T08:19:07.973Z,15.89
2018-10-07T08:21:37.697Z,15.96
2018-10-07T08:24:07.346Z,15.99
2018-10-07T08:26:38.200Z,16.06
2018-10-07T08:29:28.553Z,16.13
2018-10-07T08:31:59.758Z,16.23
2018-10-07T08:34:30.507Z,16.23
2018-10-07T08:37:02.482Z,16.24
2018-10-07T08:39:33.685Z,16.25
2018-10-07T08:42:03.722Z,16.29
2018-10-07T08:44:36.172Z,16.29
2018-10-07T08:47:06.164Z,16.28
2018-10-07T08:49:36.272Z,16.28
2018-10-07T08:52:06.405Z,16.28
2018-10-07T08:54:36.915Z,16.16
2018-10-07T08:57:06.661Z,15.98
2018-10-07T08:59:36.575Z,15.97
2018-10-07T09:02:06.786Z,15.99
2018-10-07T09:04:42.552Z,15.95
2018-10-07T09:07:18.424Z,15.92
2018-10-07T09:09:49.725Z,15.92
2018-10-07T09:12:19.422Z,15.79
2018-10-07T09:14:49.897Z,15.82
2018-10-07T09:17:20.438Z,15.76
2018-10-07T09:19:55.333Z,15.80
2018-10-07T09:22:27.313Z,15.77
2018-10-07T09:24:58.393Z,15.68
2018-10-07T09:27:28.657Z,15.63
2018-10-07T09:29:58.989Z,15.70
2018-10-07T09:32:28.823Z,15.69
2018-10-07T09:35:01.422Z,15.66
2018-10-07T09:37:31.150Z,15.57
2018-10-07T09:40:00.819Z,15.40
2018-10-07T09:42:30.876Z,15.44
2018-10-07T09:45:00.529Z,15.31
2018-10-07T09:47:30.299Z,15.25
2018-10-07T09:50:00.456Z,15.23
2018-10-07T09:52:32.292Z,14.99
2018-10-07T09:55:02.113Z,14.91
2018-10-07T09:57:33.502Z,14.87
2018-10-07T10:00:03.253Z,14.82
2018-10-07T10:02:34.510Z,14.76
2018-10-07T10:05:04.433Z,14.75
2018-10-07T10:07:35.238Z,14.70
2018-10-07T10:10:07.351Z,14.65
2018-10-07T10:12:44.432Z,14.68
2018-10-07T10:15:15.013Z,14.67
2018-10-07T10:17:49.271Z,14.61
2018-10-07T10:20:23.481Z,14.59
2018-10-07T10:23:06.562Z,14.47
2018-10-07T10:27:16.910Z,14.38
2018-10-07T10:29:50.954Z,14.17
2018-10-07T10:32:28.371Z,14.06
2018-10-07T10:35:12.383Z,13.92
2018-10-07T10:37:51.860Z,13.82
2018-10-07T10:40:29.373Z,13.82
2018-10-07T10:43:14.468Z,13.66
2018-10-07T10:46:12.152Z,13.72
2018-10-07T10:48:50.065Z,13.68
2018-10-07T10:51:29.530Z,13.65
2018-10-07T10:56:10.807Z,13.64
2018-10-07T10:59:19.353Z,13.49
2018-10-07T11:02:04.235Z,13.35
2018-10-07T11:04:49.876Z,13.29
2018-10-07T11:07:23.530Z,13.32
2018-10-07T11:11:01.395Z,13.35
2018-10-07T11:13:38.781Z,13.39
2018-10-07T11:16:16.670Z,13.41
2018-10-07T11:18:55.321Z,13.43
2018-10-07T11:21:36.636Z,13.37
2018-10-07T11:24:19.300Z,13.28
2018-10-07T11:26:58.709Z,13.29
2018-10-07T11:30:41.376Z,13.35
2018-10-07T11:34:52.243Z,13.40
2018-10-07T11:37:32.984Z,13.40
2018-10-07T11:40:15.548Z,13.44
2018-10-07T11:43:07.366Z,13.45
2018-10-07T11:45:45.393Z,13.47
2018-10-07T11:48:30.212Z,13.49
2018-10-07T11:51:06.747Z,13.58
2018-10-07T11:53:45.436Z,13.60
2018-10-07T11:56:17.429Z,13.53
2018-10-07T11:58:48.166Z,13.56
2018-10-07T12:01:20.704Z,13.51
2018-10-07T12:03:52.064Z,13.49
2018-10-07T12:06:25.021Z,13.38
2018-10-07T12:08:55.704Z,13.33
2018-10-07T12:11:25.852Z,13.27
2018-10-07T12:14:11.901Z,13.19
2018-10-07T12:16:44.854Z,13.09
2018-10-07T12:19:17.148Z,13.08
2018-10-07T12:21:51.362Z,13.06
2018-10-07T12:24:22.495Z,13.00
2018-10-07T12:26:52.777Z,13.05
2018-10-07T12:29:22.926Z,13.05
2018-10-07T12:31:57.848Z,13.00
2018-10-07T12:34:29.354Z,13.03
2018-10-07T12:37:00.480Z,13.08
2018-10-07T12:39:31.533Z,13.07
2018-10-07T12:42:03.768Z,13.10
2018-10-07T12:44:35.834Z,13.18
2018-10-07T12:47:06.452Z,13.20
2018-10-07T12:49:38.241Z,13.26
2018-10-07T12:52:11.502Z,13.30
2018-10-07T12:54:42.426Z,13.33
2018-10-07T12:57:13.110Z,13.36
2018-10-07T12:59:44.590Z,13.35
2018-10-07T13:09:13.442Z,13.36
2018-10-07T13:11:45.051Z,13.31
2018-10-07T13:14:18.117Z,13.22
2018-10-07T13:16:50.007Z,13.21
2018-10-07T13:19:20.311Z,13.24
2018-10-07T13:21:51.534Z,13.18
2018-10-07T13:24:23.615Z,13.18
2018-10-07T13:26:57.994Z,13.17
2018-10-07T13:29:29.335Z,13.07
2018-10-07T13:32:01.036Z,13.02
2018-10-07T13:34:31.353Z,12.98
2018-10-07T13:37:02.659Z,12.94
2018-10-07T13:39:34.728Z,12.69
2018-10-07T13:42:06.478Z,12.53
2018-10-07T13:44:39.525Z,12.35
2018-10-07T13:47:09.623Z,12.23
2018-10-07T13:49:41.313Z,12.06
2018-10-07T13:52:12.597Z,12.01
2018-10-07T13:54:43.659Z,11.93
2018-10-07T13:57:14.407Z,11.82
2018-10-07T13:59:50.415Z,11.61
2018-10-07T14:02:23.049Z,11.52
2018-10-07T14:04:54.397Z,11.48
2018-10-07T14:07:24.616Z,11.44
2018-10-07T14:09:56.006Z,11.42
2018-10-07T14:12:26.737Z,11.40
2018-10-07T14:14:57.282Z,11.35
2018-10-07T14:17:32.307Z,11.36
2018-10-07T14:20:04.837Z,11.32
2018-10-07T14:22:36.345Z,11.22
2018-10-07T14:25:07.135Z,11.26
2018-10-07T14:27:39.799Z,11.26
2018-10-07T14:30:12.288Z,11.28
2018-10-07T14:32:42.982Z,11.31
2018-10-07T14:35:13.904Z,11.37
2018-10-07T14:37:45.427Z,11.39
2018-10-07T14:40:19.724Z,11.38
2018-10-07T14:42:51.601Z,11.25
2018-10-07T14:45:21.903Z,11.08
2018-10-07T14:47:56.338Z,11.04
2018-10-07T14:50:27.597Z,11.03
2018-10-07T14:52:57.641Z,11.12
2018-10-07T14:55:28.726Z,11.03
2018-10-07T14:58:01.585Z,11.02
2018-10-07T15:00:32.760Z,10.94
2018-10-07T15:03:04.629Z,10.97
2018-10-07T15:05:37.488Z,10.92
2018-10-07T15:08:25.459Z,10.88
2018-10-07T15:10:55.737Z,10.82
2018-10-07T15:13:28.517Z,10.84
2018-10-07T15:15:59.832Z,10.85
2018-10-07T15:18:30.483Z,10.81
2018-10-07T15:21:03.021Z,10.81
2018-10-07T15:23:35.639Z,10.82
2018-10-07T15:26:07.559Z,10.81
2018-10-07T15:28:43.577Z,10.83
2018-10-07T15:31:16.507Z,10.72
2018-10-07T15:33:48.966Z,10.79
2018-10-07T15:36:20.623Z,10.73
2018-10-07T15:38:50.737Z,10.71
2018-10-07T15:41:20.872Z,10.67
2018-10-07T15:46:54.463Z,10.61
2018-10-07T15:50:01.687Z,10.62
2018-10-07T15:52:52.941Z,10.60
2018-10-07T15:55:26.575Z,10.52
2018-10-07T15:57:58.709Z,10.47
2018-10-07T16:00:29.415Z,10.45
2018-10-07T16:03:00.314Z,10.43
2018-10-07T16:05:30.380Z,10.36
2018-10-07T16:08:11.528Z,10.25
2018-10-07T16:10:42.549Z,10.28
2018-10-07T16:13:17.140Z,10.28
2018-10-07T16:15:47.273Z,10.30
2018-10-07T16:18:17.611Z,10.36
2018-10-07T16:20:49.103Z,10.41
2018-10-07T16:23:19.403Z,10.31
2018-10-07T16:25:50.669Z,10.32
2018-10-07T16:28:20.969Z,10.36
2018-10-07T16:30:56.343Z,10.42
2018-10-07T16:33:27.677Z,10.36
2018-10-07T16:36:03.171Z,10.39
2018-10-07T16:38:34.430Z,10.37
2018-10-07T16:41:05.443Z,10.43
2018-10-07T16:43:37.535Z,10.41
2018-10-07T16:46:17.688Z,10.37
2018-10-07T16:48:49.698Z,10.33
2018-10-07T16:51:22.950Z,10.35
2018-10-07T16:53:56.723Z,10.32
2018-10-07T16:56:28.465Z,10.24
2018-10-07T16:58:59.347Z,10.14
2018-10-07T17:01:30.245Z,10.10
2018-10-07T17:04:00.357Z,10.13
2018-10-07T17:06:32.283Z,10.13
2018-10-07T17:09:05.069Z,10.07
2018-10-07T17:11:36.185Z,10.05
2018-10-07T17:14:10.770Z,9.98
2018-10-07T17:16:41.385Z,9.92
2018-10-07T17:19:12.465Z,9.92
2018-10-07T17:21:44.435Z,9.99
2018-10-07T17:24:19.580Z,10.03
2018-10-07T17:26:54.615Z,10.02
2018-10-07T17:29:33.426Z,10.05
2018-10-07T17:32:05.987Z,10.01
2018-10-07T17:34:40.681Z,10.05
2018-10-07T17:37:16.289Z,9.95
2018-10-07T17:39:48.466Z,9.88
2018-10-07T17:42:20.637Z,9.80
2018-10-07T17:44:58.006Z,9.88
2018-10-07T17:47:32.243Z,9.87
2018-10-07T17:50:06.276Z,9.78
2018-10-07T17:52:41.382Z,9.77
2018-10-07T17:55:14.097Z,9.76
2018-10-07T17:57:44.592Z,9.77
2018-10-07T18:00:21.122Z,9.65
2018-10-07T18:02:51.516Z,9.57
2018-10-07T18:05:22.096Z,9.54
2018-10-07T18:07:53.771Z,9.63
2018-10-07T18:10:24.493Z,9.69
2018-10-07T18:12:57.405Z,9.73
2018-10-07T18:15:33.336Z,9.72
2018-10-07T18:18:04.357Z,9.61
2018-10-07T18:20:37.339Z,9.62
2018-10-07T18:23:10.805Z,9.60
2018-10-07T18:25:41.677Z,9.54
2018-10-07T18:28:13.702Z,9.51
2018-10-07T18:30:45.166Z,9.54
2018-10-07T18:33:15.816Z,9.56
2018-10-07T18:38:23.476Z,9.60
2018-10-07T18:40:56.676Z,9.58
2018-10-07T18:43:29.675Z,9.59
2018-10-07T18:46:01.138Z,9.59
2018-10-07T18:48:31.548Z,9.47
2018-10-07T18:51:03.545Z,9.45
2018-10-07T18:53:35.566Z,9.46
2018-10-07T18:56:10.955Z,9.49
2018-10-07T18:58:42.175Z,9.44
2018-10-07T19:01:13.322Z,9.50
2018-10-07T19:03:44.525Z,9.42
2018-10-07T19:06:16.706Z,9.30
2018-10-07T19:08:47.416Z,9.36
2018-10-07T19:11:24.354Z,9.41
2018-10-07T19:13:56.499Z,9.40
2018-10-07T19:16:28.444Z,9.44
2018-10-07T19:18:59.782Z,9.49
2018-10-07T19:21:34.265Z,9.49
2018-10-07T19:24:04.385Z,9.46
2018-10-07T19:26:36.449Z,9.51
2018-10-07T19:29:07.629Z,9.51
2018-10-07T19:31:41.544Z,9.49
2018-10-07T19:34:13.503Z,9.51
2018-10-07T19:36:49.442Z,9.54
2018-10-07T19:39:25.788Z,9.53
2018-10-07T19:41:57.843Z,9.52
2018-10-07T19:44:29.410Z,9.40
2018-10-07T19:47:01.426Z,9.41
2018-10-07T19:49:35.995Z,9.43
2018-10-07T19:52:08.839Z,9.40
2018-10-07T19:54:40.846Z,9.34
2018-10-07T19:57:14.949Z,9.34
2018-10-07T19:59:47.499Z,9.36
2018-10-07T20:02:19.748Z,9.35
2018-10-07T20:04:51.544Z,9.38
2018-10-07T20:07:22.636Z,9.37
2018-10-07T20:09:52.786Z,9.37
2018-10-07T20:12:25.384Z,9.38
2018-10-07T20:15:00.161Z,9.43
2018-10-07T20:17:31.390Z,9.40
2018-10-07T20:20:03.293Z,9.41
2018-10-07T20:22:34.023Z,9.37
2018-10-07T20:25:05.490Z,9.32
2018-10-07T20:27:35.223Z,9.39
2018-10-07T20:30:06.105Z,9.39
2018-10-07T20:32:43.458Z,9.40
2018-10-07T20:35:14.466Z,9.32
2018-10-07T20:37:46.457Z,9.34
2018-10-07T20:40:16.161Z,9.41
2018-10-07T20:42:46.793Z,9.42
2018-10-07T20:45:19.561Z,9.47
2018-10-07T20:47:50.690Z,9.39
2018-10-07T20:50:20.437Z,9.33
2018-10-07T20:56:11.278Z,9.33
2018-10-07T20:58:45.386Z,9.28
2018-10-07T21:01:19.173Z,9.25
2018-10-07T21:03:50.309Z,9.21
2018-10-07T21:06:25.261Z,9.23
2018-10-07T21:08:55.701Z,9.24
2018-10-07T21:11:30.857Z,9.27
2018-10-07T21:14:00.504Z,9.27
2018-10-07T21:16:31.022Z,9.24
2018-10-07T21:19:00.886Z,9.20
2018-10-07T21:21:31.401Z,9.25
2018-10-07T21:24:01.516Z,9.27
2018-10-07T21:26:31.485Z,9.27
2018-10-07T21:29:01.412Z,9.31
2018-10-07T21:31:31.381Z,9.27
2018-10-07T21:34:02.311Z,9.28
2018-10-07T21:36:40.183Z,9.30
2018-10-07T21:39:11.357Z,9.35
2018-10-07T21:41:41.064Z,9.41
2018-10-07T21:44:14.598Z,9.42
2018-10-07T21:46:48.076Z,9.46
2018-10-07T21:49:17.690Z,9.47
2018-10-07T21:51:49.295Z,9.40
2018-10-07T21:54:18.965Z,9.42
2018-10-07T21:56:49.326Z,9.40
2018-10-07T21:59:19.813Z,9.42
2018-10-07T22:01:49.438Z,9.45
2018-10-07T22:04:19.060Z,9.39
2018-10-07T22:06:49.531Z,9.39
2018-10-07T22:09:19.180Z,9.38
2018-10-07T22:11:48.845Z,9.40
2018-10-07T22:14:23.465Z,9.42
2018-10-07T22:16:53.101Z,9.46
2018-10-07T22:19:23.113Z,9.45
2018-10-07T22:21:52.729Z,9.41
2018-10-07T22:24:22.357Z,9.42
2018-10-07T22:26:52.025Z,9.38
2018-10-07T22:29:22.177Z,9.37
2018-10-07T22:31:52.374Z,9.39
2018-10-07T22:34:23.593Z,9.37
2018-10-07T22:36:54.362Z,9.37
2018-10-07T22:39:25.390Z,9.37
2018-10-07T22:41:55.037Z,9.23
2018-10-07T22:44:26.020Z,9.25
2018-10-07T22:46:56.430Z,9.23
2018-10-07T22:56:10.912Z,9.26
2018-10-07T22:58:42.200Z,9.17
2018-10-07T23:01:14.967Z,9.17
2018-10-07T23:03:46.557Z,9.16
2018-10-07T23:06:17.420Z,9.16
2018-10-07T23:08:48.065Z,9.15
2018-10-07T23:11:19.341Z,9.19
2018-10-07T23:13:51.273Z,9.23
2018-10-07T23:16:23.278Z,9.24
2018-10-07T23:18:53.313Z,9.26
2018-10-07T23:21:23.985Z,9.24
2018-10-07T23:23:53.583Z,9.28
2018-10-07T23:26:23.188Z,9.27
2018-10-07T23:28:53.187Z,9.29
2018-10-07T23:31:22.813Z,9.32
2018-10-07T23:33:53.097Z,9.35
2018-10-07T23:36:23.376Z,9.35
2018-10-07T23:38:54.017Z,9.36
2018-10-07T23:41:24.324Z,9.36
2018-10-07T23:43:57.948Z,9.39
2018-10-07T23:46:27.570Z,9.39
2018-10-07T23:48:58.149Z,9.38
2018-10-07T23:51:29.062Z,9.38
2018-10-07T23:53:58.764Z,9.42
2018-10-07T23:56:28.402Z,9.43
2018-10-07T23:58:58.229Z,9.42
